sensor_id;sensor_type;location;lat;lon;timestamp;temperature;humidity
21047;DHT22;10682;50.874;3.656;2023-06-05T00:01:27;14.40;99.90
21047;DHT22;10682;50.874;3.656;2023-06-05T00:03:54;14.40;99.90
21047;DHT22;10682;50.874;3.656;2023-06-05T00:06:22;14.40;99.90
21047;DHT22;10682;50.874;3.656;2023-06-05T00:08:50;14.30;99.90
21047;DHT22;10682;50.874;3.656;2023-06-05T00:11:17;14.20;99.90
21047;DHT22;10682;50.874;3.656;2023-06-05T00:13:44;14.20;99.90
21047;DHT22;10682;50.874;3.656;2023-06-05T00:16:12;14.20;99.90
21047;DHT22;10682;50.874;3.656;2023-06-05T00:18:39;14.10;99.90
21047;DHT22;10682;50.874;3.656;2023-06-05T00:21:07;14.10;99.90
21047;DHT22;10682;50.874;3.656;2023-06-05T00:23:34;14.10;99.90
21047;DHT22;10682;50.874;3.656;2023-06-05T00:26:01;14.00;99.90
21047;DHT22;10682;50.874;3.656;2023-06-05T00:28:28;14.00;99.90
21047;DHT22;10682;50.874;3.656;2023-06-05T00:30:55;13.90;99.90
21047;DHT22;10682;50.874;3.656;2023-06-05T00:33:22;14.00;99.90
21047;DHT22;10682;50.874;3.656;2023-06-05T00:35:49;13.90;99.90
21047;DHT22;10682;50.874;3.656;2023-06-05T00:38:17;13.80;99.90
21047;DHT22;10682;50.874;3.656;2023-06-05T00:40:44;13.80;99.90
21047;DHT22;10682;50.874;3.656;2023-06-05T00:43:11;13.80;99.90
21047;DHT22;10682;50.874;3.656;2023-06-05T00:45:38;13.80;99.90
21047;DHT22;10682;50.874;3.656;2023-06-05T00:48:06;13.70;99.90
21047;DHT22;10682;50.874;3.656;2023-06-05T00:50:34;13.70;99.90
21047;DHT22;10682;50.874;3.656;2023-06-05T00:53:01;13.60;99.90
21047;DHT22;10682;50.874;3.656;2023-06-05T00:55:29;13.60;99.90
21047;DHT22;10682;50.874;3.656;2023-06-05T00:57:56;13.60;99.90
21047;DHT22;10682;50.874;3.656;2023-06-05T01:00:24;13.50;99.90
21047;DHT22;10682;50.874;3.656;2023-06-05T01:02:52;13.50;99.90
21047;DHT22;10682;50.874;3.656;2023-06-05T01:05:20;13.40;99.90
21047;DHT22;10682;50.874;3.656;2023-06-05T01:07:47;13.40;99.90
21047;DHT22;10682;50.874;3.656;2023-06-05T01:10:17;13.40;99.90
21047;DHT22;10682;50.874;3.656;2023-06-05T01:15:39;13.30;99.90
21047;DHT22;10682;50.874;3.656;2023-06-05T01:18:07;13.20;99.90
21047;DHT22;10682;50.874;3.656;2023-06-05T01:20:36;13.20;99.90
21047;DHT22;10682;50.874;3.656;2023-06-05T01:23:05;13.20;99.90
21047;DHT22;10682;50.874;3.656;2023-06-05T01:25:33;13.20;99.90
21047;DHT22;10682;50.874;3.656;2023-06-05T01:28:22;13.20;99.90
21047;DHT22;10682;50.874;3.656;2023-06-05T01:31:04;13.10;99.90
21047;DHT22;10682;50.874;3.656;2023-06-05T01:33:37;13.10;99.90
21047;DHT22;10682;50.874;3.656;2023-06-05T01:36:11;13.10;99.90
21047;DHT22;10682;50.874;3.656;2023-06-05T01:38:40;13.10;99.90
21047;DHT22;10682;50.874;3.656;2023-06-05T01:41:09;13.00;99.90
21047;DHT22;10682;50.874;3.656;2023-06-05T01:43:38;13.00;99.90
21047;DHT22;10682;50.874;3.656;2023-06-05T01:46:06;13.00;99.90
21047;DHT22;10682;50.874;3.656;2023-06-05T01:48:35;13.00;99.90
21047;DHT22;10682;50.874;3.656;2023-06-05T01:51:02;13.00;99.90
21047;DHT22;10682;50.874;3.656;2023-06-05T01:53:29;12.90;99.90
21047;DHT22;10682;50.874;3.656;2023-06-05T01:55:57;12.90;99.90
21047;DHT22;10682;50.874;3.656;2023-06-05T01:58:24;12.90;99.90
21047;DHT22;10682;50.874;3.656;2023-06-05T02:00:52;12.90;99.90
21047;DHT22;10682;50.874;3.656;2023-06-05T02:03:21;12.80;99.90
21047;DHT22;10682;50.874;3.656;2023-06-05T02:05:48;12.80;99.90
21047;DHT22;10682;50.874;3.656;2023-06-05T02:08:15;12.80;99.90
21047;DHT22;10682;50.874;3.656;2023-06-05T02:10:46;12.80;99.90
21047;DHT22;10682;50.874;3.656;2023-06-05T02:13:13;12.80;99.90
21047;DHT22;10682;50.874;3.656;2023-06-05T02:15:42;12.70;99.90
21047;DHT22;10682;50.874;3.656;2023-06-05T02:18:11;12.80;99.90
21047;DHT22;10682;50.874;3.656;2023-06-05T02:20:41;12.70;99.90
21047;DHT22;10682;50.874;3.656;2023-06-05T02:23:08;12.70;99.90
21047;DHT22;10682;50.874;3.656;2023-06-05T02:25:35;12.70;99.90
21047;DHT22;10682;50.874;3.656;2023-06-05T02:28:02;12.70;99.90
21047;DHT22;10682;50.874;3.656;2023-06-05T02:30:29;12.70;99.90
21047;DHT22;10682;50.874;3.656;2023-06-05T02:32:57;12.70;99.90
21047;DHT22;10682;50.874;3.656;2023-06-05T02:35:28;12.70;99.90
21047;DHT22;10682;50.874;3.656;2023-06-05T02:37:56;12.70;99.90
21047;DHT22;10682;50.874;3.656;2023-06-05T02:40:24;12.60;99.90
21047;DHT22;10682;50.874;3.656;2023-06-05T02:42:51;12.60;99.90
21047;DHT22;10682;50.874;3.656;2023-06-05T02:45:18;12.60;99.90
21047;DHT22;10682;50.874;3.656;2023-06-05T02:47:45;12.60;99.90
21047;DHT22;10682;50.874;3.656;2023-06-05T02:50:13;12.50;99.90
21047;DHT22;10682;50.874;3.656;2023-06-05T02:52:40;12.50;99.90
21047;DHT22;10682;50.874;3.656;2023-06-05T02:55:07;12.50;99.90
21047;DHT22;10682;50.874;3.656;2023-06-05T02:57:34;12.50;99.90
21047;DHT22;10682;50.874;3.656;2023-06-05T03:00:11;12.40;99.90
21047;DHT22;10682;50.874;3.656;2023-06-05T03:02:44;12.40;99.90
21047;DHT22;10682;50.874;3.656;2023-06-05T03:05:16;12.40;99.90
21047;DHT22;10682;50.874;3.656;2023-06-05T03:07:51;12.40;99.90
21047;DHT22;10682;50.874;3.656;2023-06-05T03:10:22;12.40;99.90
21047;DHT22;10682;50.874;3.656;2023-06-05T03:12:49;12.30;99.90
21047;DHT22;10682;50.874;3.656;2023-06-05T03:15:16;12.30;99.90
21047;DHT22;10682;50.874;3.656;2023-06-05T03:17:44;12.30;99.90
21047;DHT22;10682;50.874;3.656;2023-06-05T03:20:17;12.20;99.90
21047;DHT22;10682;50.874;3.656;2023-06-05T03:22:45;12.20;99.90
21047;DHT22;10682;50.874;3.656;2023-06-05T03:25:12;12.20;99.90
21047;DHT22;10682;50.874;3.656;2023-06-05T03:27:39;12.20;99.90
21047;DHT22;10682;50.874;3.656;2023-06-05T03:30:07;12.20;99.90
21047;DHT22;10682;50.874;3.656;2023-06-05T03:32:35;12.10;99.90
21047;DHT22;10682;50.874;3.656;2023-06-05T03:35:02;12.10;99.90
21047;DHT22;10682;50.874;3.656;2023-06-05T03:37:30;12.10;99.90
21047;DHT22;10682;50.874;3.656;2023-06-05T03:39:57;12.10;99.90
21047;DHT22;10682;50.874;3.656;2023-06-05T03:42:24;12.00;99.90
21047;DHT22;10682;50.874;3.656;2023-06-05T03:44:51;12.00;99.90
21047;DHT22;10682;50.874;3.656;2023-06-05T03:47:18;12.00;99.90
21047;DHT22;10682;50.874;3.656;2023-06-05T03:49:48;12.00;99.90
21047;DHT22;10682;50.874;3.656;2023-06-05T03:52:16;12.00;99.90
21047;DHT22;10682;50.874;3.656;2023-06-05T03:54:44;12.00;99.90
21047;DHT22;10682;50.874;3.656;2023-06-05T03:57:12;12.00;99.90
21047;DHT22;10682;50.874;3.656;2023-06-05T03:59:41;12.00;99.90
21047;DHT22;10682;50.874;3.656;2023-06-05T04:02:08;12.00;99.90
21047;DHT22;10682;50.874;3.656;2023-06-05T04:04:36;12.10;99.90
21047;DHT22;10682;50.874;3.656;2023-06-05T04:07:03;12.00;99.90
21047;DHT22;10682;50.874;3.656;2023-06-05T04:09:32;12.00;99.90
21047;DHT22;10682;50.874;3.656;2023-06-05T04:12:00;12.10;99.90
21047;DHT22;10682;50.874;3.656;2023-06-05T04:14:27;12.10;99.90
21047;DHT22;10682;50.874;3.656;2023-06-05T04:16:54;12.10;99.90
21047;DHT22;10682;50.874;3.656;2023-06-05T04:19:21;12.10;99.90
21047;DHT22;10682;50.874;3.656;2023-06-05T04:21:48;12.10;99.90
21047;DHT22;10682;50.874;3.656;2023-06-05T04:24:15;12.10;99.90
21047;DHT22;10682;50.874;3.656;2023-06-05T04:26:42;12.10;99.90
21047;DHT22;10682;50.874;3.656;2023-06-05T04:29:10;12.10;99.90
21047;DHT22;10682;50.874;3.656;2023-06-05T04:31:45;12.10;99.90
21047;DHT22;10682;50.874;3.656;2023-06-05T04:34:14;12.20;99.90
21047;DHT22;10682;50.874;3.656;2023-06-05T04:36:41;12.20;99.90
21047;DHT22;10682;50.874;3.656;2023-06-05T04:39:08;12.30;99.90
21047;DHT22;10682;50.874;3.656;2023-06-05T04:41:45;12.30;99.90
21047;DHT22;10682;50.874;3.656;2023-06-05T04:44:23;12.30;99.90
21047;DHT22;10682;50.874;3.656;2023-06-05T04:46:50;12.40;99.90
21047;DHT22;10682;50.874;3.656;2023-06-05T04:49:18;12.40;99.90
21047;DHT22;10682;50.874;3.656;2023-06-05T04:51:45;12.40;99.90
21047;DHT22;10682;50.874;3.656;2023-06-05T04:54:12;12.50;99.90
21047;DHT22;10682;50.874;3.656;2023-06-05T04:56:39;12.50;99.90
21047;DHT22;10682;50.874;3.656;2023-06-05T04:59:06;12.60;99.90
21047;DHT22;10682;50.874;3.656;2023-06-05T05:01:34;12.60;99.90
21047;DHT22;10682;50.874;3.656;2023-06-05T05:04:01;12.70;99.90
21047;DHT22;10682;50.874;3.656;2023-06-05T05:06:28;12.70;99.90
21047;DHT22;10682;50.874;3.656;2023-06-05T05:08:55;12.80;99.90
21047;DHT22;10682;50.874;3.656;2023-06-05T05:11:23;12.80;99.90
21047;DHT22;10682;50.874;3.656;2023-06-05T05:13:50;12.90;99.90
21047;DHT22;10682;50.874;3.656;2023-06-05T05:16:17;12.90;99.90
21047;DHT22;10682;50.874;3.656;2023-06-05T05:18:44;13.00;99.90
21047;DHT22;10682;50.874;3.656;2023-06-05T05:21:12;13.00;99.90
21047;DHT22;10682;50.874;3.656;2023-06-05T05:23:39;13.10;99.90
21047;DHT22;10682;50.874;3.656;2023-06-05T05:26:07;13.10;99.90
21047;DHT22;10682;50.874;3.656;2023-06-05T05:28:34;13.10;99.90
21047;DHT22;10682;50.874;3.656;2023-06-05T05:31:01;13.20;99.90
21047;DHT22;10682;50.874;3.656;2023-06-05T05:33:29;13.30;99.90
21047;DHT22;10682;50.874;3.656;2023-06-05T05:35:56;13.30;99.90
21047;DHT22;10682;50.874;3.656;2023-06-05T05:38:24;13.40;99.90
21047;DHT22;10682;50.874;3.656;2023-06-05T05:40:51;13.40;99.90
21047;DHT22;10682;50.874;3.656;2023-06-05T05:43:19;13.50;99.90
21047;DHT22;10682;50.874;3.656;2023-06-05T05:45:46;13.60;99.90
21047;DHT22;10682;50.874;3.656;2023-06-05T05:48:13;13.70;99.90
21047;DHT22;10682;50.874;3.656;2023-06-05T05:50:41;13.80;99.90
21047;DHT22;10682;50.874;3.656;2023-06-05T05:53:08;13.80;99.90
21047;DHT22;10682;50.874;3.656;2023-06-05T05:55:35;13.80;99.90
21047;DHT22;10682;50.874;3.656;2023-06-05T05:58:02;13.90;99.90
21047;DHT22;10682;50.874;3.656;2023-06-05T06:00:29;14.00;99.90
21047;DHT22;10682;50.874;3.656;2023-06-05T06:02:56;14.00;99.90
21047;DHT22;10682;50.874;3.656;2023-06-05T06:05:23;14.00;99.90
21047;DHT22;10682;50.874;3.656;2023-06-05T06:07:51;14.10;99.90
21047;DHT22;10682;50.874;3.656;2023-06-05T06:10:18;14.10;99.90
21047;DHT22;10682;50.874;3.656;2023-06-05T06:12:46;14.20;99.90
21047;DHT22;10682;50.874;3.656;2023-06-05T06:15:13;14.30;99.90
21047;DHT22;10682;50.874;3.656;2023-06-05T06:17:40;14.20;99.90
21047;DHT22;10682;50.874;3.656;2023-06-05T06:20:08;14.40;99.90
21047;DHT22;10682;50.874;3.656;2023-06-05T06:22:40;14.40;99.90
21047;DHT22;10682;50.874;3.656;2023-06-05T06:25:09;14.50;99.90
21047;DHT22;10682;50.874;3.656;2023-06-05T06:27:37;14.60;99.90
21047;DHT22;10682;50.874;3.656;2023-06-05T06:30:05;14.70;99.90
21047;DHT22;10682;50.874;3.656;2023-06-05T06:32:34;14.70;99.90
21047;DHT22;10682;50.874;3.656;2023-06-05T06:35:01;14.80;99.90
21047;DHT22;10682;50.874;3.656;2023-06-05T06:37:28;14.80;99.90
21047;DHT22;10682;50.874;3.656;2023-06-05T06:39:55;14.80;99.90
21047;DHT22;10682;50.874;3.656;2023-06-05T06:42:22;14.90;99.90
21047;DHT22;10682;50.874;3.656;2023-06-05T06:44:49;15.10;99.90
21047;DHT22;10682;50.874;3.656;2023-06-05T06:47:23;15.20;99.90
21047;DHT22;10682;50.874;3.656;2023-06-05T06:49:52;15.30;99.90
21047;DHT22;10682;50.874;3.656;2023-06-05T06:52:20;15.50;99.90
21047;DHT22;10682;50.874;3.656;2023-06-05T06:54:51;15.50;99.90
21047;DHT22;10682;50.874;3.656;2023-06-05T06:57:18;15.50;99.90
21047;DHT22;10682;50.874;3.656;2023-06-05T06:59:45;15.50;99.90
21047;DHT22;10682;50.874;3.656;2023-06-05T07:02:17;15.60;99.90
21047;DHT22;10682;50.874;3.656;2023-06-05T07:04:47;15.60;99.90
21047;DHT22;10682;50.874;3.656;2023-06-05T07:07:16;15.70;99.90
21047;DHT22;10682;50.874;3.656;2023-06-05T07:09:45;15.90;99.90
21047;DHT22;10682;50.874;3.656;2023-06-05T07:12:14;16.00;99.90
21047;DHT22;10682;50.874;3.656;2023-06-05T07:14:41;16.10;99.90
21047;DHT22;10682;50.874;3.656;2023-06-05T07:17:09;16.10;99.90
21047;DHT22;10682;50.874;3.656;2023-06-05T07:19:36;16.20;99.90
21047;DHT22;10682;50.874;3.656;2023-06-05T07:22:04;16.20;99.90
21047;DHT22;10682;50.874;3.656;2023-06-05T07:24:33;16.10;99.90
21047;DHT22;10682;50.874;3.656;2023-06-05T07:27:03;16.20;99.90
21047;DHT22;10682;50.874;3.656;2023-06-05T07:29:30;16.40;99.90
21047;DHT22;10682;50.874;3.656;2023-06-05T07:31:58;16.50;99.90
21047;DHT22;10682;50.874;3.656;2023-06-05T07:34:27;16.70;99.90
21047;DHT22;10682;50.874;3.656;2023-06-05T07:36:54;16.80;99.90
21047;DHT22;10682;50.874;3.656;2023-06-05T07:39:23;16.80;99.90
21047;DHT22;10682;50.874;3.656;2023-06-05T07:41:50;17.00;99.90
21047;DHT22;10682;50.874;3.656;2023-06-05T07:44:19;17.10;99.90
21047;DHT22;10682;50.874;3.656;2023-06-05T07:46:49;17.30;99.90
21047;DHT22;10682;50.874;3.656;2023-06-05T07:49:17;17.40;99.90
21047;DHT22;10682;50.874;3.656;2023-06-05T07:51:45;17.50;99.90
21047;DHT22;10682;50.874;3.656;2023-06-05T07:54:17;17.60;99.90
21047;DHT22;10682;50.874;3.656;2023-06-05T07:56:46;17.60;99.90
21047;DHT22;10682;50.874;3.656;2023-06-05T07:59:15;17.60;99.90
21047;DHT22;10682;50.874;3.656;2023-06-05T08:01:44;17.70;99.90
21047;DHT22;10682;50.874;3.656;2023-06-05T08:04:12;17.80;99.90
21047;DHT22;10682;50.874;3.656;2023-06-05T08:06:39;17.90;99.90
21047;DHT22;10682;50.874;3.656;2023-06-05T08:09:07;18.00;99.90
21047;DHT22;10682;50.874;3.656;2023-06-05T08:11:37;18.00;99.90
21047;DHT22;10682;50.874;3.656;2023-06-05T08:14:05;18.00;99.90
21047;DHT22;10682;50.874;3.656;2023-06-05T08:16:33;18.10;99.90
21047;DHT22;10682;50.874;3.656;2023-06-05T08:19:01;18.30;99.90
21047;DHT22;10682;50.874;3.656;2023-06-05T08:21:28;18.30;99.90
21047;DHT22;10682;50.874;3.656;2023-06-05T08:23:55;18.50;99.90
21047;DHT22;10682;50.874;3.656;2023-06-05T08:26:23;18.60;99.90
21047;DHT22;10682;50.874;3.656;2023-06-05T08:28:50;18.60;99.90
21047;DHT22;10682;50.874;3.656;2023-06-05T08:31:17;18.60;99.90
21047;DHT22;10682;50.874;3.656;2023-06-05T08:33:44;18.80;99.90
21047;DHT22;10682;50.874;3.656;2023-06-05T08:36:11;19.10;99.90
21047;DHT22;10682;50.874;3.656;2023-06-05T08:38:38;19.40;99.90
21047;DHT22;10682;50.874;3.656;2023-06-05T08:41:08;19.90;99.90
21047;DHT22;10682;50.874;3.656;2023-06-05T08:43:38;20.30;99.90
21047;DHT22;10682;50.874;3.656;2023-06-05T08:46:09;20.40;99.90
21047;DHT22;10682;50.874;3.656;2023-06-05T08:48:42;20.50;99.90
21047;DHT22;10682;50.874;3.656;2023-06-05T08:51:15;20.70;99.90
21047;DHT22;10682;50.874;3.656;2023-06-05T08:53:56;20.80;99.90
21047;DHT22;10682;50.874;3.656;2023-06-05T08:56:25;20.90;99.90
21047;DHT22;10682;50.874;3.656;2023-06-05T08:58:54;21.10;99.90
21047;DHT22;10682;50.874;3.656;2023-06-05T09:01:22;21.30;99.90
21047;DHT22;10682;50.874;3.656;2023-06-05T09:03:50;21.50;99.90
21047;DHT22;10682;50.874;3.656;2023-06-05T09:06:17;21.40;99.90
21047;DHT22;10682;50.874;3.656;2023-06-05T09:08:44;21.40;99.90
21047;DHT22;10682;50.874;3.656;2023-06-05T09:11:23;21.50;99.90
21047;DHT22;10682;50.874;3.656;2023-06-05T09:13:53;21.70;99.90
21047;DHT22;10682;50.874;3.656;2023-06-05T09:16:31;21.80;99.90
21047;DHT22;10682;50.874;3.656;2023-06-05T09:19:05;21.70;99.90
21047;DHT22;10682;50.874;3.656;2023-06-05T09:21:33;21.70;99.90
21047;DHT22;10682;50.874;3.656;2023-06-05T09:29:36;21.30;99.90
21047;DHT22;10682;50.874;3.656;2023-06-05T09:32:15;21.30;99.90
21047;DHT22;10682;50.874;3.656;2023-06-05T09:34:44;21.50;99.90
21047;DHT22;10682;50.874;3.656;2023-06-05T09:37:13;21.80;99.90
21047;DHT22;10682;50.874;3.656;2023-06-05T09:39:41;21.80;99.90
21047;DHT22;10682;50.874;3.656;2023-06-05T09:42:13;21.70;99.90
21047;DHT22;10682;50.874;3.656;2023-06-05T09:44:40;21.60;99.90
21047;DHT22;10682;50.874;3.656;2023-06-05T09:47:08;21.70;99.90
21047;DHT22;10682;50.874;3.656;2023-06-05T09:52:09;22.00;99.90
21047;DHT22;10682;50.874;3.656;2023-06-05T09:54:40;22.30;99.90
21047;DHT22;10682;50.874;3.656;2023-06-05T09:57:10;22.30;99.90
21047;DHT22;10682;50.874;3.656;2023-06-05T09:59:54;22.40;99.90
21047;DHT22;10682;50.874;3.656;2023-06-05T10:02:33;22.60;99.90
21047;DHT22;10682;50.874;3.656;2023-06-05T10:05:03;22.80;99.90
21047;DHT22;10682;50.874;3.656;2023-06-05T10:07:33;22.90;99.90
21047;DHT22;10682;50.874;3.656;2023-06-05T10:10:04;23.00;99.90
21047;DHT22;10682;50.874;3.656;2023-06-05T10:12:33;23.00;99.90
21047;DHT22;10682;50.874;3.656;2023-06-05T10:15:01;23.00;99.90
21047;DHT22;10682;50.874;3.656;2023-06-05T10:17:28;22.90;99.90
21047;DHT22;10682;50.874;3.656;2023-06-05T10:19:56;23.00;99.90
21047;DHT22;10682;50.874;3.656;2023-06-05T10:22:24;23.50;99.90
21047;DHT22;10682;50.874;3.656;2023-06-05T10:24:58;23.70;99.90
21047;DHT22;10682;50.874;3.656;2023-06-05T10:40:26;24.30;99.90
21047;DHT22;10682;50.874;3.656;2023-06-05T10:42:53;24.70;99.90
21047;DHT22;10682;50.874;3.656;2023-06-05T10:45:33;25.00;99.90
21047;DHT22;10682;50.874;3.656;2023-06-05T10:48:01;24.80;99.90
21047;DHT22;10682;50.874;3.656;2023-06-05T10:50:29;24.80;99.90
21047;DHT22;10682;50.874;3.656;2023-06-05T10:52:58;24.80;99.90
21047;DHT22;10682;50.874;3.656;2023-06-05T10:55:26;25.00;99.90
21047;DHT22;10682;50.874;3.656;2023-06-05T10:58:07;25.10;99.90
21047;DHT22;10682;50.874;3.656;2023-06-05T11:00:38;25.20;99.90
21047;DHT22;10682;50.874;3.656;2023-06-05T11:03:05;25.00;99.90
21047;DHT22;10682;50.874;3.656;2023-06-05T11:05:33;25.10;99.90
21047;DHT22;10682;50.874;3.656;2023-06-05T11:08:15;25.40;99.90
21047;DHT22;10682;50.874;3.656;2023-06-05T11:11:01;25.10;99.90
21047;DHT22;10682;50.874;3.656;2023-06-05T11:13:53;24.90;99.90
21047;DHT22;10682;50.874;3.656;2023-06-05T11:16:33;25.10;99.90
21047;DHT22;10682;50.874;3.656;2023-06-05T11:19:35;25.20;99.90
21047;DHT22;10682;50.874;3.656;2023-06-05T11:22:13;25.20;99.90
21047;DHT22;10682;50.874;3.656;2023-06-05T11:24:40;25.30;99.90
21047;DHT22;10682;50.874;3.656;2023-06-05T11:27:07;25.30;99.90
21047;DHT22;10682;50.874;3.656;2023-06-05T11:30:17;25.30;99.90
21047;DHT22;10682;50.874;3.656;2023-06-05T11:33:18;25.50;99.90
21047;DHT22;10682;50.874;3.656;2023-06-05T11:35:49;25.70;99.90
21047;DHT22;10682;50.874;3.656;2023-06-05T11:38:22;25.60;99.90
21047;DHT22;10682;50.874;3.656;2023-06-05T11:40:51;25.30;99.90
21047;DHT22;10682;50.874;3.656;2023-06-05T11:43:19;25.50;99.90
21047;DHT22;10682;50.874;3.656;2023-06-05T11:45:54;25.60;99.90
21047;DHT22;10682;50.874;3.656;2023-06-05T11:48:24;25.80;99.90
21047;DHT22;10682;50.874;3.656;2023-06-05T11:50:59;26.10;99.90
21047;DHT22;10682;50.874;3.656;2023-06-05T11:53:28;26.40;99.90
21047;DHT22;10682;50.874;3.656;2023-06-05T11:55:57;26.50;99.90
21047;DHT22;10682;50.874;3.656;2023-06-05T11:58:37;26.60;99.90
21047;DHT22;10682;50.874;3.656;2023-06-05T12:01:06;26.30;99.90
21047;DHT22;10682;50.874;3.656;2023-06-05T12:03:36;26.40;99.90
21047;DHT22;10682;50.874;3.656;2023-06-05T12:06:03;26.40;99.90
21047;DHT22;10682;50.874;3.656;2023-06-05T12:08:32;26.40;99.90
21047;DHT22;10682;50.874;3.656;2023-06-05T12:11:01;26.70;99.90
21047;DHT22;10682;50.874;3.656;2023-06-05T12:13:51;26.90;99.90
21047;DHT22;10682;50.874;3.656;2023-06-05T12:16:42;26.50;99.90
21047;DHT22;10682;50.874;3.656;2023-06-05T12:19:13;26.40;99.90
21047;DHT22;10682;50.874;3.656;2023-06-05T12:21:47;26.70;99.90
21047;DHT22;10682;50.874;3.656;2023-06-05T12:24:23;26.90;99.90
21047;DHT22;10682;50.874;3.656;2023-06-05T12:27:01;27.20;99.90
21047;DHT22;10682;50.874;3.656;2023-06-05T12:29:38;27.00;99.90
21047;DHT22;10682;50.874;3.656;2023-06-05T12:32:25;27.00;99.90
21047;DHT22;10682;50.874;3.656;2023-06-05T12:34:53;27.00;99.90
21047;DHT22;10682;50.874;3.656;2023-06-05T12:37:32;26.80;99.90
21047;DHT22;10682;50.874;3.656;2023-06-05T12:40:04;26.90;99.90
21047;DHT22;10682;50.874;3.656;2023-06-05T12:42:39;26.80;99.90
21047;DHT22;10682;50.874;3.656;2023-06-05T12:45:08;27.00;99.90
21047;DHT22;10682;50.874;3.656;2023-06-05T12:47:37;27.00;99.90
21047;DHT22;10682;50.874;3.656;2023-06-05T12:50:05;27.10;99.90
21047;DHT22;10682;50.874;3.656;2023-06-05T12:52:34;27.10;99.90
21047;DHT22;10682;50.874;3.656;2023-06-05T12:55:01;27.00;99.90
21047;DHT22;10682;50.874;3.656;2023-06-05T12:57:30;26.80;99.90
21047;DHT22;10682;50.874;3.656;2023-06-05T12:59:58;26.60;99.90
21047;DHT22;10682;50.874;3.656;2023-06-05T13:02:25;26.80;99.90
21047;DHT22;10682;50.874;3.656;2023-06-05T13:04:52;26.60;99.90
21047;DHT22;10682;50.874;3.656;2023-06-05T13:07:19;26.50;99.90
21047;DHT22;10682;50.874;3.656;2023-06-05T13:09:48;26.70;99.90
21047;DHT22;10682;50.874;3.656;2023-06-05T13:12:16;26.70;99.90
21047;DHT22;10682;50.874;3.656;2023-06-05T13:14:43;26.70;99.90
21047;DHT22;10682;50.874;3.656;2023-06-05T13:17:10;26.80;99.90
21047;DHT22;10682;50.874;3.656;2023-06-05T13:19:37;26.70;99.90
21047;DHT22;10682;50.874;3.656;2023-06-05T13:22:05;26.60;99.90
21047;DHT22;10682;50.874;3.656;2023-06-05T13:24:32;26.60;99.90
21047;DHT22;10682;50.874;3.656;2023-06-05T13:26:59;26.90;99.90
21047;DHT22;10682;50.874;3.656;2023-06-05T13:29:26;27.10;99.90
21047;DHT22;10682;50.874;3.656;2023-06-05T13:31:53;27.40;99.90
21047;DHT22;10682;50.874;3.656;2023-06-05T13:34:20;27.50;99.90
21047;DHT22;10682;50.874;3.656;2023-06-05T13:36:47;27.60;99.90
21047;DHT22;10682;50.874;3.656;2023-06-05T13:39:17;27.80;99.90
21047;DHT22;10682;50.874;3.656;2023-06-05T13:41:44;27.80;99.90
21047;DHT22;10682;50.874;3.656;2023-06-05T13:44:11;27.70;99.90
21047;DHT22;10682;50.874;3.656;2023-06-05T13:46:38;27.60;99.90
21047;DHT22;10682;50.874;3.656;2023-06-05T13:49:07;27.70;99.90
21047;DHT22;10682;50.874;3.656;2023-06-05T13:51:34;27.80;99.90
21047;DHT22;10682;50.874;3.656;2023-06-05T13:54:01;27.50;99.90
21047;DHT22;10682;50.874;3.656;2023-06-05T13:56:29;27.50;99.90
21047;DHT22;10682;50.874;3.656;2023-06-05T13:58:56;27.50;99.90
21047;DHT22;10682;50.874;3.656;2023-06-05T14:01:24;27.50;99.90
21047;DHT22;10682;50.874;3.656;2023-06-05T14:03:51;27.10;99.90
21047;DHT22;10682;50.874;3.656;2023-06-05T14:06:19;27.10;99.90
21047;DHT22;10682;50.874;3.656;2023-06-05T14:08:46;27.00;99.90
21047;DHT22;10682;50.874;3.656;2023-06-05T14:11:14;27.30;99.90
21047;DHT22;10682;50.874;3.656;2023-06-05T14:13:41;27.20;99.90
21047;DHT22;10682;50.874;3.656;2023-06-05T14:16:09;27.30;99.90
21047;DHT22;10682;50.874;3.656;2023-06-05T14:18:39;27.30;99.90
21047;DHT22;10682;50.874;3.656;2023-06-05T14:21:06;27.10;99.90
21047;DHT22;10682;50.874;3.656;2023-06-05T14:23:33;27.10;99.90
21047;DHT22;10682;50.874;3.656;2023-06-05T14:26:01;27.00;99.90
21047;DHT22;10682;50.874;3.656;2023-06-05T14:28:28;26.90;99.90
21047;DHT22;10682;50.874;3.656;2023-06-05T14:30:55;26.70;99.90
21047;DHT22;10682;50.874;3.656;2023-06-05T14:33:22;26.50;99.90
21047;DHT22;10682;50.874;3.656;2023-06-05T14:35:49;26.30;99.90
21047;DHT22;10682;50.874;3.656;2023-06-05T14:38:17;26.30;99.90
21047;DHT22;10682;50.874;3.656;2023-06-05T14:40:44;26.30;99.90
21047;DHT22;10682;50.874;3.656;2023-06-05T14:43:11;26.30;99.90
21047;DHT22;10682;50.874;3.656;2023-06-05T14:45:38;26.10;99.90
21047;DHT22;10682;50.874;3.656;2023-06-05T14:48:07;25.90;99.90
21047;DHT22;10682;50.874;3.656;2023-06-05T14:50:36;25.80;99.90
21047;DHT22;10682;50.874;3.656;2023-06-05T14:53:03;25.60;99.90
21047;DHT22;10682;50.874;3.656;2023-06-05T14:55:31;25.50;99.90
21047;DHT22;10682;50.874;3.656;2023-06-05T14:57:58;25.40;99.90
21047;DHT22;10682;50.874;3.656;2023-06-05T15:00:25;25.20;99.90
21047;DHT22;10682;50.874;3.656;2023-06-05T15:02:52;24.90;99.90
21047;DHT22;10682;50.874;3.656;2023-06-05T15:05:19;24.80;99.90
21047;DHT22;10682;50.874;3.656;2023-06-05T15:07:47;24.70;99.90
21047;DHT22;10682;50.874;3.656;2023-06-05T15:10:14;24.60;99.90
21047;DHT22;10682;50.874;3.656;2023-06-05T15:12:42;24.60;99.90
21047;DHT22;10682;50.874;3.656;2023-06-05T15:15:10;24.70;99.90
21047;DHT22;10682;50.874;3.656;2023-06-05T15:17:47;24.50;99.90
21047;DHT22;10682;50.874;3.656;2023-06-05T15:20:15;24.40;99.90
21047;DHT22;10682;50.874;3.656;2023-06-05T15:22:42;24.40;99.90
21047;DHT22;10682;50.874;3.656;2023-06-05T15:25:09;24.40;99.90
21047;DHT22;10682;50.874;3.656;2023-06-05T15:27:36;24.20;99.90
21047;DHT22;10682;50.874;3.656;2023-06-05T15:30:06;24.20;99.90
21047;DHT22;10682;50.874;3.656;2023-06-05T15:32:33;24.10;99.90
21047;DHT22;10682;50.874;3.656;2023-06-05T15:35:01;24.00;99.90
21047;DHT22;10682;50.874;3.656;2023-06-05T15:37:28;24.20;99.90
21047;DHT22;10682;50.874;3.656;2023-06-05T15:39:55;24.10;99.90
21047;DHT22;10682;50.874;3.656;2023-06-05T15:42:33;24.10;99.90
21047;DHT22;10682;50.874;3.656;2023-06-05T15:47:34;23.90;99.90
21047;DHT22;10682;50.874;3.656;2023-06-05T15:50:03;23.80;99.90
21047;DHT22;10682;50.874;3.656;2023-06-05T15:52:35;23.80;99.90
21047;DHT22;10682;50.874;3.656;2023-06-05T15:55:03;23.90;99.90
21047;DHT22;10682;50.874;3.656;2023-06-05T15:57:31;23.90;99.90
21047;DHT22;10682;50.874;3.656;2023-06-05T15:59:58;23.90;99.90
21047;DHT22;10682;50.874;3.656;2023-06-05T16:02:25;24.00;99.90
21047;DHT22;10682;50.874;3.656;2023-06-05T16:04:52;23.90;99.90
21047;DHT22;10682;50.874;3.656;2023-06-05T16:07:19;23.70;99.90
21047;DHT22;10682;50.874;3.656;2023-06-05T16:09:48;23.60;99.90